Time;durP1;ratioP1;P1;durP2;ratioP2;P2;SDS_P1;SDS_P2;PMS_P1;PMS_P2;Temp;Humidity;BMP_temperature;BMP_pressure;BME280_temperature;BME280_humidity;BME280_pressure;Samples;Min_cycle;Max_cycle;Signal;HPM_P1;HPM_P2
2021/01/06 06:02:20;;;;;;;35.38;21.20;;;;;;;;;;5065565;28;20381;-61
2021/01/06 06:04:49;;;;;;;41.90;20.25;;;;;;;;;;5065131;28;20033;-61
2021/01/06 06:07:24;;;;;;;47.85;22.92;;;;;;;;;;5065964;28;20378;-60
2021/01/06 06:09:50;;;;;;;;;;;;;;;;;;5059319;28;20031;-61
2021/01/06 06:12:39;;;;;;;52.75;26.45;;;;;;;;;;5061460;28;19909;-61
2021/01/06 06:15:24;;;;;;;51.38;24.25;;;;;;;;;;5061365;28;20028;-61
2021/01/06 06:18:05;;;;;;;51.17;22.47;;;;;;;;;;5060731;28;20108;-61
2021/01/06 06:20:45;;;;;;;54.72;25.52;;;;;;;;;;5062359;28;20309;-59
2021/01/06 06:23:11;;;;;;;97.40;31.30;;;;;;;;;;5063970;28;20049;-62
2021/01/06 06:25:40;;;;;;;56.13;25.17;;;;;;;;;;5050013;28;20029;-60
2021/01/06 06:28:23;;;;;;;52.38;23.67;;;;;;;;;;5066713;28;20021;-61
2021/01/06 06:30:54;;;;;;;67.80;23.95;;;;;;;;;;5063819;28;20036;-61
2021/01/06 06:33:26;;;;;;;66.28;24.50;;;;;;;;;;5063666;28;20024;-61
2021/01/06 06:35:55;;;;;;;65.88;25.08;;;;;;;;;;5063257;28;20099;-61
2021/01/06 06:38:33;;;;;;;67.95;23.75;;;;;;;;;;5063754;28;20020;-61
2021/01/06 06:41:01;;;;;;;64.82;23.35;;;;;;;;;;5064238;28;20033;-60
2021/01/06 06:43:30;;;;;;;55.25;22.42;;;;;;;;;;5067270;28;20056;-61
2021/01/06 06:46:00;;;;;;;63.65;24.35;;;;;;;;;;5063534;28;20020;-62
2021/01/06 06:48:43;;;;;;;59.30;22.38;;;;;;;;;;5063387;28;20028;-60
2021/01/06 06:51:22;;;;;;;70.22;24.33;;;;;;;;;;5063105;28;20448;-61
2021/01/06 06:53:55;;;;;;;60.10;24.60;;;;;;;;;;5063321;28;20037;-61
2021/01/06 06:56:22;;;;;;;112.80;23.40;;;;;;;;;;5063183;28;20025;-61
2021/01/06 06:58:51;;;;;;;66.53;22.92;;;;;;;;;;5065436;28;20028;-60
2021/01/06 07:01:19;;;;;;;60.47;24.30;;;;;;;;;;5061579;28;20084;-60
2021/01/06 07:03:51;;;;;;;104.53;25.40;;;;;;;;;;5049975;28;20029;-60
2021/01/06 07:06:18;;;;;;;79.75;26.42;;;;;;;;;;5052923;28;20486;-61
2021/01/06 07:08:44;;;;;;;93.72;25.65;;;;;;;;;;5053432;28;20025;-60
2021/01/06 07:11:10;;;;;;;71.25;27.65;;;;;;;;;;5053205;28;20047;-61
2021/01/06 07:13:37;;;;;;;78.00;25.73;;;;;;;;;;5053328;28;20159;-60
2021/01/06 07:16:10;;;;;;;86.35;26.77;;;;;;;;;;5051764;28;20064;-60
2021/01/06 07:18:44;;;;;;;114.22;27.73;;;;;;;;;;5052062;28;20509;-62
2021/01/06 07:21:15;;;;;;;165.25;29.73;;;;;;;;;;5051633;28;20422;-60
2021/01/06 07:23:53;;;;;;;92.82;29.90;;;;;;;;;;5050042;28;20398;-59
2021/01/06 07:26:22;;;;;;;89.32;32.78;;;;;;;;;;5045053;28;20029;-59
2021/01/06 07:28:48;;;;;;;79.28;32.88;;;;;;;;;;5050779;28;20512;-59
2021/01/06 07:31:20;;;;;;;93.97;32.67;;;;;;;;;;5050371;28;20074;-60
2021/01/06 07:33:51;;;;;;;75.10;30.75;;;;;;;;;;5047784;28;20066;-58
2021/01/06 07:36:21;;;;;;;85.13;32.95;;;;;;;;;;5048702;28;20533;-59
2021/01/06 07:38:48;;;;;;;90.15;31.13;;;;;;;;;;5049356;28;20033;-59
2021/01/06 07:41:15;;;;;;;104.35;31.42;;;;;;;;;;5047964;28;20029;-60
2021/01/06 07:43:57;;;;;;;85.65;34.20;;;;;;;;;;5050722;28;20021;-58
2021/01/06 07:46:24;;;;;;;103.65;34.17;;;;;;;;;;5046016;28;20118;-60
2021/01/06 07:48:57;;;;;;;90.78;32.33;;;;;;;;;;5046316;28;20044;-62
2021/01/06 07:51:38;;;;;;;83.10;35.80;;;;;;;;;;5048939;28;20037;-70
2021/01/06 07:54:05;;;;;;;87.30;35.58;;;;;;;;;;5048601;28;20032;-69
2021/01/06 07:56:42;;;;;;;89.70;35.10;;;;;;;;;;5048667;28;20032;-70
2021/01/06 07:59:35;;;;;;;86.43;36.40;;;;;;;;;;5048868;28;20794;-67
2021/01/06 08:02:10;;;;;;;92.65;34.10;;;;;;;;;;5012174;28;20046;-63
2021/01/06 08:04:38;;;;;;;88.90;35.33;;;;;;;;;;5013157;28;20033;-72
2021/01/06 08:07:08;;;;;;;87.00;37.08;;;;;;;;;;5013824;28;20406;-66
2021/01/06 08:09:40;;;;;;;100.88;38.78;;;;;;;;;;5015013;28;20030;-68
2021/01/06 08:12:18;;;;;;;83.43;36.53;;;;;;;;;;5016120;28;20037;-66
2021/01/06 08:14:45;;;;;;;88.68;35.25;;;;;;;;;;5015631;28;20053;-68
2021/01/06 08:17:16;;;;;;;108.10;38.90;;;;;;;;;;5016131;28;20104;-67
2021/01/06 08:19:46;;;;;;;91.15;35.63;;;;;;;;;;5017522;28;20092;-67
2021/01/06 08:22:25;;;;;;;103.57;36.78;;;;;;;;;;5014625;28;20072;-65
2021/01/06 08:25:06;;;;;;;113.95;36.65;;;;;;;;;;5014620;28;20041;-68
2021/01/06 08:27:36;;;;;;;102.82;37.25;;;;;;;;;;5014104;28;20053;-67
2021/01/06 08:30:31;;;;;;;98.47;35.33;;;;;;;;;;5014321;28;20037;-66
2021/01/06 08:33:05;;;;;;;93.15;34.63;;;;;;;;;;5005651;28;20037;-68
2021/01/06 08:35:34;;;;;;;110.50;38.22;;;;;;;;;;5015810;28;20931;-59
2021/01/06 08:38:00;;;;;;;131.00;39.67;;;;;;;;;;5022426;28;20033;-60
2021/01/06 08:40:29;;;;;;;132.57;39.30;;;;;;;;;;5050559;28;20029;-59
2021/01/06 08:42:55;;;;;;;163.38;41.95;;;;;;;;;;5047666;28;20032;-60
2021/01/06 08:45:29;;;;;;;195.57;42.70;;;;;;;;;;5041571;28;20021;-59
2021/01/06 08:47:55;;;;;;;234.10;44.42;;;;;;;;;;5039103;28;20124;-60
2021/01/06 08:50:23;;;;;;;469.02;58.13;;;;;;;;;;5047970;28;20025;-60
2021/01/06 08:52:50;;;;;;;410.98;54.95;;;;;;;;;;5049816;28;20037;-60
2021/01/06 08:55:19;;;;;;;580.28;69.82;;;;;;;;;;5049942;28;20025;-59
2021/01/06 08:57:46;;;;;;;469.20;61.20;;;;;;;;;;5047576;28;20036;-60
2021/01/06 09:00:28;;;;;;;455.60;61.20;;;;;;;;;;5046695;28;20131;-59
2021/01/06 09:02:57;;;;;;;232.45;49.15;;;;;;;;;;5047421;28;20078;-59
2021/01/06 09:05:42;;;;;;;102.55;39.42;;;;;;;;;;5049068;28;20036;-60
2021/01/06 09:08:11;;;;;;;167.07;45.78;;;;;;;;;;5049458;28;20047;-59
2021/01/06 09:10:40;;;;;;;125.18;44.35;;;;;;;;;;5049984;28;20113;-59
2021/01/06 09:13:11;;;;;;;151.68;45.28;;;;;;;;;;5050045;28;20025;-59
2021/01/06 09:15:46;;;;;;;122.32;44.35;;;;;;;;;;5048495;28;20472;-59
2021/01/06 09:18:12;;;;;;;;;;;;;;;;;;5047458;28;20025;-58
2021/01/06 09:20:50;;;;;;;108.22;42.90;;;;;;;;;;5048125;28;20394;-58
2021/01/06 09:23:17;;;;;;;90.05;40.38;;;;;;;;;;5047440;28;20100;-64
2021/01/06 09:25:44;;;;;;;98.32;41.58;;;;;;;;;;5048058;28;20021;-60
2021/01/06 09:28:12;;;;;;;92.00;39.50;;;;;;;;;;5049022;28;20025;-60
2021/01/06 09:30:39;;;;;;;89.68;38.38;;;;;;;;;;5045860;28;20486;-59
2021/01/06 09:33:12;;;;;;;87.38;40.72;;;;;;;;;;5047144;28;20029;-60
2021/01/06 09:35:38;;;;;;;86.57;39.38;;;;;;;;;;5046569;28;20025;-59
2021/01/06 09:38:14;;;;;;;95.13;40.92;;;;;;;;;;5047269;28;20020;-59
2021/01/06 09:40:41;;;;;;;88.00;39.20;;;;;;;;;;5045636;28;20036;-67
2021/01/06 09:43:17;;;;;;;81.10;39.13;;;;;;;;;;5048012;28;20025;-59
2021/01/06 09:45:43;;;;;;;84.90;40.15;;;;;;;;;;5045409;28;20052;-60
2021/01/06 09:48:11;;;;;;;84.50;38.33;;;;;;;;;;5047750;28;20024;-60
2021/01/06 09:50:41;;;;;;;86.43;36.95;;;;;;;;;;5046216;28;20033;-60
2021/01/06 09:53:09;;;;;;;79.60;37.22;;;;;;;;;;5047938;28;20466;-59
2021/01/06 09:55:37;;;;;;;76.28;37.58;;;;;;;;;;5045259;28;20021;-60
2021/01/06 09:58:06;;;;;;;79.57;37.78;;;;;;;;;;5047064;28;20076;-58
2021/01/06 10:00:52;;;;;;;76.07;37.75;;;;;;;;;;5045699;28;20658;-60
2021/01/06 10:03:18;;;;;;;75.95;38.47;;;;;;;;;;5043723;28;20060;-59
2021/01/06 10:06:01;;;;;;;70.03;34.83;;;;;;;;;;5045218;28;20033;-59
2021/01/06 10:08:46;;;;;;;66.38;34.70;;;;;;;;;;5046803;28;20044;-60
2021/01/06 10:11:12;;;;;;;73.90;36.20;;;;;;;;;;5047171;28;20437;-59
2021/01/06 10:13:51;;;;;;;71.75;34.65;;;;;;;;;;5046600;28;20025;-59
2021/01/06 10:16:23;;;;;;;79.22;36.88;;;;;;;;;;5045962;28;20049;-59
2021/01/06 10:18:57;;;;;;;67.45;35.05;;;;;;;;;;5047065;28;20502;-59
2021/01/06 10:21:33;;;;;;;64.70;35.20;;;;;;;;;;5045539;28;20128;-59
2021/01/06 10:24:06;;;;;;;65.35;34.20;;;;;;;;;;5047522;28;20071;-59
2021/01/06 10:26:37;;;;;;;60.08;31.65;;;;;;;;;;5047422;28;20072;-57
2021/01/06 10:29:19;;;;;;;52.63;30.38;;;;;;;;;;5046402;28;20444;-60
2021/01/06 10:32:03;;;;;;;52.53;30.52;;;;;;;;;;5044651;28;20449;-60
2021/01/06 10:34:38;;;;;;;58.53;31.30;;;;;;;;;;5048010;28;20410;-58
2021/01/06 10:37:04;;;;;;;54.65;30.95;;;;;;;;;;5049256;28;20038;-60
2021/01/06 10:39:44;;;;;;;58.03;31.05;;;;;;;;;;5050903;28;20037;-59
2021/01/06 10:42:22;;;;;;;56.20;30.48;;;;;;;;;;5050312;28;20037;-59
2021/01/06 10:44:48;;;;;;;54.13;29.45;;;;;;;;;;5049492;28;20044;-59
2021/01/06 10:47:28;;;;;;;57.13;29.58;;;;;;;;;;5050218;28;20548;-60
2021/01/06 10:49:56;;;;;;;51.92;28.63;;;;;;;;;;5051079;28;20494;-60
2021/01/06 10:52:23;;;;;;;49.22;28.55;;;;;;;;;;5053346;28;20033;-59
2021/01/06 10:54:49;;;;;;;55.63;30.40;;;;;;;;;;5051846;28;20604;-59
2021/01/06 10:57:15;;;;;;;63.33;30.80;;;;;;;;;;5057120;28;20020;-59
2021/01/06 11:00:01;;;;;;;56.67;31.42;;;;;;;;;;5053860;28;20055;-57
2021/01/06 11:02:34;;;;;;;56.17;31.02;;;;;;;;;;5054669;28;20037;-59
2021/01/06 11:05:19;;;;;;;57.00;29.95;;;;;;;;;;5060829;28;20414;-59
2021/01/06 11:08:17;;;;;;;52.00;29.80;;;;;;;;;;5057724;28;20040;-57
2021/01/06 11:11:10;;;;;;;49.05;28.67;;;;;;;;;;5061934;28;20051;-59
2021/01/06 11:13:48;;;;;;;58.80;31.10;;;;;;;;;;5061241;28;20108;-59
2021/01/06 11:16:16;;;;;;;54.88;30.05;;;;;;;;;;5052104;28;20025;-59
2021/01/06 11:18:45;;;;;;;51.85;29.38;;;;;;;;;;5049368;28;20043;-59
2021/01/06 11:21:14;;;;;;;46.25;28.40;;;;;;;;;;5049015;28;20391;-60
2021/01/06 11:23:46;;;;;;;48.08;29.90;;;;;;;;;;5043768;28;20029;-59
2021/01/06 11:26:23;;;;;;;54.70;30.55;;;;;;;;;;5040202;28;20029;-60
2021/01/06 11:28:56;;;;;;;46.28;27.85;;;;;;;;;;5047358;28;20060;-60
2021/01/06 11:31:25;;;;;;;43.20;26.70;;;;;;;;;;5041401;28;20059;-56
2021/01/06 11:33:56;;;;;;;50.55;29.42;;;;;;;;;;5047315;28;20036;-61
2021/01/06 11:36:26;;;;;;;40.20;25.33;;;;;;;;;;5047679;28;20029;-60
2021/01/06 11:38:53;;;;;;;32.10;20.55;;;;;;;;;;5048675;28;20099;-60
2021/01/06 11:41:39;;;;;;;28.10;18.08;;;;;;;;;;5048718;28;20030;-59
2021/01/06 11:44:11;;;;;;;28.83;19.40;;;;;;;;;;5034635;28;20067;-60
2021/01/06 11:46:53;;;;;;;32.05;20.85;;;;;;;;;;5052374;28;20064;-59
2021/01/06 11:49:22;;;;;;;35.03;22.38;;;;;;;;;;5052821;28;20087;-59
2021/01/06 11:52:17;;;;;;;24.40;17.08;;;;;;;;;;5050662;28;20025;-59
2021/01/06 11:54:45;;;;;;;24.17;14.73;;;;;;;;;;5038184;28;20118;-59
2021/01/06 11:57:31;;;;;;;24.77;16.85;;;;;;;;;;5043996;28;20025;-60
2021/01/06 12:00:06;;;;;;;24.15;15.68;;;;;;;;;;5048479;28;20053;-59
2021/01/06 12:02:37;;;;;;;23.05;16.35;;;;;;;;;;5050522;28;20035;-60
2021/01/06 12:05:13;;;;;;;20.73;14.73;;;;;;;;;;5047142;28;20116;-59
2021/01/06 12:07:42;;;;;;;22.30;14.48;;;;;;;;;;5048379;28;20533;-59
2021/01/06 12:10:44;;;;;;;22.00;12.25;;;;;;;;;;5045758;28;20071;-57
2021/01/06 12:13:18;;;;;;;18.05;11.50;;;;;;;;;;5049481;28;20167;-59
2021/01/06 12:15:47;;;;;;;18.48;12.23;;;;;;;;;;5044529;28;20057;-60
2021/01/06 12:18:25;;;;;;;17.10;11.57;;;;;;;;;;5046482;28;20417;-59
2021/01/06 12:20:51;;;;;;;32.90;12.57;;;;;;;;;;5045931;28;20183;-60
2021/01/06 12:23:38;;;;;;;18.63;11.65;;;;;;;;;;5046211;28;20021;-60
2021/01/06 12:26:05;;;;;;;18.17;11.13;;;;;;;;;;5046599;28;20173;-59
2021/01/06 12:28:50;;;;;;;19.40;9.80;;;;;;;;;;5041935;28;20406;-60
2021/01/06 12:31:17;;;;;;;14.75;10.65;;;;;;;;;;5050038;28;20024;-60
2021/01/06 12:33:47;;;;;;;13.15;9.60;;;;;;;;;;5040983;28;20176;-60
2021/01/06 12:36:13;;;;;;;15.65;11.07;;;;;;;;;;5038607;28;20029;-59
2021/01/06 12:38:39;;;;;;;15.48;10.27;;;;;;;;;;5043644;28;20036;-59
2021/01/06 12:41:09;;;;;;;13.88;9.30;;;;;;;;;;5046656;28;20057;-60
2021/01/06 12:43:35;;;;;;;17.30;8.93;;;;;;;;;;5044973;28;20029;-60
2021/01/06 12:46:08;;;;;;;11.95;8.27;;;;;;;;;;5039739;28;20033;-59
2021/01/06 12:48:45;;;;;;;14.02;8.88;;;;;;;;;;5048578;28;20021;-59
2021/01/06 12:51:25;;;;;;;12.32;8.95;;;;;;;;;;5047027;28;20075;-60
2021/01/06 12:54:08;;;;;;;12.32;8.13;;;;;;;;;;5045198;28;20025;-58
2021/01/06 12:56:38;;;;;;;15.20;8.32;;;;;;;;;;5047457;28;20032;-59
2021/01/06 12:59:10;;;;;;;10.48;6.57;;;;;;;;;;5047570;28;20037;-58
2021/01/06 13:01:43;;;;;;;11.25;7.90;;;;;;;;;;5046942;28;20112;-59
2021/01/06 13:04:09;;;;;;;14.73;9.32;;;;;;;;;;5049059;28;20482;-59
2021/01/06 13:06:42;;;;;;;11.32;7.78;;;;;;;;;;5047511;28;20425;-60
2021/01/06 13:09:14;;;;;;;10.80;7.90;;;;;;;;;;5048294;28;20369;-62
2021/01/06 13:11:43;;;;;;;14.60;8.30;;;;;;;;;;5041511;28;20075;-61
2021/01/06 13:14:29;;;;;;;14.02;8.55;;;;;;;;;;5042541;28;20037;-60
2021/01/06 13:17:15;;;;;;;12.35;8.25;;;;;;;;;;5045589;28;20129;-62
2021/01/06 13:20:00;;;;;;;9.55;7.05;;;;;;;;;;5049099;28;20055;-61
2021/01/06 13:22:40;;;;;;;12.05;7.90;;;;;;;;;;5046776;28;20032;-59
2021/01/06 13:25:06;;;;;;;10.85;7.85;;;;;;;;;;5048259;28;20441;-61
2021/01/06 13:27:38;;;;;;;14.25;7.88;;;;;;;;;;5044791;28;20052;-62
2021/01/06 13:30:15;;;;;;;9.52;7.28;;;;;;;;;;5046647;28;20129;-62
2021/01/06 13:32:50;;;;;;;12.82;7.53;;;;;;;;;;5046698;28;20032;-63
2021/01/06 13:35:25;;;;;;;14.57;8.35;;;;;;;;;;5046599;28;20021;-60
2021/01/06 13:38:02;;;;;;;12.15;7.90;;;;;;;;;;5047193;28;20037;-61
2021/01/06 13:40:31;;;;;;;10.70;7.38;;;;;;;;;;5049688;28;20041;-62
2021/01/06 13:43:00;;;;;;;13.73;7.57;;;;;;;;;;5046143;28;20017;-60
2021/01/06 13:45:36;;;;;;;12.05;8.15;;;;;;;;;;5046081;28;20037;-63
2021/01/06 13:48:20;;;;;;;10.82;7.85;;;;;;;;;;5048507;28;20406;-62
2021/01/06 13:50:50;;;;;;;14.63;7.78;;;;;;;;;;5045118;28;20055;-60
2021/01/06 13:53:22;;;;;;;12.20;8.68;;;;;;;;;;5048023;28;20467;-61
2021/01/06 13:55:59;;;;;;;7.22;5.40;;;;;;;;;;5047214;28;20437;-61
2021/01/06 13:58:46;;;;;;;8.65;5.97;;;;;;;;;;5049161;28;20124;-62
2021/01/06 14:01:31;;;;;;;9.23;6.07;;;;;;;;;;5048036;28;20049;-62
2021/01/06 14:04:04;;;;;;;9.60;6.47;;;;;;;;;;5045937;28;20036;-61
2021/01/06 14:06:32;;;;;;;12.00;6.40;;;;;;;;;;5044710;28;20059;-62
2021/01/06 14:09:04;;;;;;;8.32;5.25;;;;;;;;;;5047916;28;20037;-61
2021/01/06 14:11:49;;;;;;;8.57;5.60;;;;;;;;;;5045995;28;20025;-66
2021/01/06 14:14:39;;;;;;;6.75;4.00;;;;;;;;;;5052429;28;20107;-61
2021/01/06 14:17:20;;;;;;;8.43;5.13;;;;;;;;;;5049755;28;20052;-63
2021/01/06 14:20:05;;;;;;;6.55;4.00;;;;;;;;;;5051855;28;20086;-60
2021/01/06 14:22:36;;;;;;;6.57;3.20;;;;;;;;;;5051676;28;20044;-63
2021/01/06 14:25:23;;;;;;;6.43;3.35;;;;;;;;;;5052605;28;20498;-60
2021/01/06 14:27:51;;;;;;;4.88;2.90;;;;;;;;;;5050970;28;20021;-60
2021/01/06 14:30:21;;;;;;;6.15;4.07;;;;;;;;;;5052294;28;20047;-60
2021/01/06 14:33:17;;;;;;;7.63;4.43;;;;;;;;;;5050444;28;20032;-61
2021/01/06 14:35:44;;;;;;;7.30;4.97;;;;;;;;;;5046425;28;20414;-60
2021/01/06 14:38:29;;;;;;;8.18;4.82;;;;;;;;;;5050639;28;20037;-61
2021/01/06 14:41:04;;;;;;;8.53;6.47;;;;;;;;;;5051590;28;20047;-59
2021/01/06 14:43:36;;;;;;;8.40;5.72;;;;;;;;;;5053194;28;20268;-60
2021/01/06 14:46:06;;;;;;;9.07;5.28;;;;;;;;;;5052542;28;20029;-59
2021/01/06 14:48:33;;;;;;;7.97;5.43;;;;;;;;;;5051333;28;20421;-60
2021/01/06 14:51:12;;;;;;;10.05;5.40;;;;;;;;;;5049530;28;20017;-60
2021/01/06 14:53:47;;;;;;;8.07;4.20;;;;;;;;;;5050208;28;20041;-61
2021/01/06 14:56:18;;;;;;;7.82;5.00;;;;;;;;;;5050290;28;20091;-60
2021/01/06 14:58:48;;;;;;;10.48;5.43;;;;;;;;;;5052347;28;20471;-59
2021/01/06 15:01:21;;;;;;;7.15;4.15;;;;;;;;;;5051014;28;20053;-60
2021/01/06 15:03:53;;;;;;;7.93;4.43;;;;;;;;;;5049577;28;20072;-61
2021/01/06 15:06:19;;;;;;;7.90;4.38;;;;;;;;;;5050330;28;20095;-60
2021/01/06 15:08:48;;;;;;;7.22;4.53;;;;;;;;;;5051612;28;20033;-60
2021/01/06 15:11:20;;;;;;;18.75;11.15;;;;;;;;;;5049695;28;20021;-60
2021/01/06 15:13:47;;;;;;;7.55;6.55;;;;;;;;;;5051984;28;20112;-59
2021/01/06 15:16:19;;;;;;;9.88;5.63;;;;;;;;;;5050725;28;20120;-60
2021/01/06 15:18:49;;;;;;;8.77;5.70;;;;;;;;;;5049415;28;20021;-59
2021/01/06 15:21:18;;;;;;;10.70;6.35;;;;;;;;;;5049431;28;20033;-60
2021/01/06 15:23:49;;;;;;;10.23;6.38;;;;;;;;;;5049178;28;20131;-60
2021/01/06 15:26:27;;;;;;;14.75;10.32;;;;;;;;;;5049643;28;20029;-60
2021/01/06 15:28:55;;;;;;;10.88;7.97;;;;;;;;;;5049969;28;20033;-60
2021/01/06 15:31:24;;;;;;;10.02;5.93;;;;;;;;;;5052058;28;20021;-60
2021/01/06 15:33:56;;;;;;;9.88;6.25;;;;;;;;;;5049244;28;20021;-61
2021/01/06 15:36:30;;;;;;;9.68;5.90;;;;;;;;;;5051162;28;20048;-61
2021/01/06 15:39:00;;;;;;;11.48;9.18;;;;;;;;;;5049067;28;20028;-60
2021/01/06 15:41:28;;;;;;;9.15;7.05;;;;;;;;;;5049152;28;20399;-60
2021/01/06 15:43:55;;;;;;;15.00;8.25;;;;;;;;;;5051007;28;20025;-60
2021/01/06 15:46:24;;;;;;;9.63;6.70;;;;;;;;;;5051519;28;20522;-60
2021/01/06 15:49:06;;;;;;;7.22;5.63;;;;;;;;;;5048744;28;20044;-61
2021/01/06 15:51:59;;;;;;;12.68;7.47;;;;;;;;;;5048649;28;20040;-60
2021/01/06 15:54:27;;;;;;;10.18;6.68;;;;;;;;;;5002855;28;20033;-60
2021/01/06 15:56:53;;;;;;;11.27;6.30;;;;;;;;;;5008080;28;20092;-60
2021/01/06 15:59:20;;;;;;;12.52;7.53;;;;;;;;;;5007397;28;20057;-60
2021/01/06 16:01:47;;;;;;;8.85;6.72;;;;;;;;;;5004473;28;20428;-60
2021/01/06 16:04:13;;;;;;;11.23;7.50;;;;;;;;;;5008930;28;20120;-60
2021/01/06 16:06:48;;;;;;;8.68;6.07;;;;;;;;;;5009000;28;20034;-60
2021/01/06 16:09:14;;;;;;;;;;;;;;;;;;5009066;28;20065;-60
2021/01/06 16:11:41;;;;;;;8.27;5.30;;;;;;;;;;5002646;28;19992;-60
2021/01/06 16:14:12;;;;;;;8.57;5.43;;;;;;;;;;5000554;28;20045;-60
2021/01/06 16:16:44;;;;;;;8.02;5.47;;;;;;;;;;4990809;28;20026;-60
2021/01/06 16:19:13;;;;;;;10.98;5.78;;;;;;;;;;5003583;28;20044;-61
2021/01/06 16:21:41;;;;;;;7.07;5.50;;;;;;;;;;5001303;28;20034;-61
2021/01/06 16:24:15;;;;;;;9.57;5.65;;;;;;;;;;5004401;28;20030;-61
2021/01/06 16:26:42;;;;;;;9.27;5.78;;;;;;;;;;4999848;28;20116;-60
2021/01/06 16:29:28;;;;;;;9.35;7.13;;;;;;;;;;5001147;28;20022;-61
2021/01/06 16:32:08;;;;;;;12.30;6.30;;;;;;;;;;5035885;28;20049;-61
2021/01/06 16:34:35;;;;;;;8.57;5.63;;;;;;;;;;5045669;28;20083;-61
2021/01/06 16:37:02;;;;;;;7.28;4.85;;;;;;;;;;5047251;28;20499;-60
2021/01/06 16:39:28;;;;;;;7.55;4.90;;;;;;;;;;5045944;28;20108;-60
2021/01/06 16:41:56;;;;;;;9.05;4.88;;;;;;;;;;5046400;28;20036;-61
2021/01/06 16:44:34;;;;;;;9.35;5.22;;;;;;;;;;5046221;28;20479;-60
2021/01/06 16:47:06;;;;;;;10.82;6.05;;;;;;;;;;5046329;28;20034;-61
2021/01/06 16:49:35;;;;;;;12.88;6.60;;;;;;;;;;5048277;28;20112;-60
2021/01/06 16:52:09;;;;;;;12.30;8.60;;;;;;;;;;5047515;28;20021;-61
2021/01/06 16:54:40;;;;;;;15.30;10.15;;;;;;;;;;5044690;28;20021;-60
2021/01/06 16:57:21;;;;;;;10.95;5.80;;;;;;;;;;5046160;28;20029;-60
2021/01/06 16:59:47;;;;;;;35.05;14.20;;;;;;;;;;5044729;28;20024;-61
2021/01/06 17:02:17;;;;;;;59.88;36.90;;;;;;;;;;5045536;28;20055;-61
2021/01/06 17:04:44;;;;;;;11.35;7.30;;;;;;;;;;5046033;28;20078;-60
2021/01/06 17:07:20;;;;;;;9.82;6.57;;;;;;;;;;5049077;28;20069;-61
2021/01/06 17:09:47;;;;;;;9.02;6.53;;;;;;;;;;5044764;28;20029;-61
2021/01/06 17:12:25;;;;;;;11.15;7.05;;;;;;;;;;5041390;28;20025;-61
2021/01/06 17:14:51;;;;;;;7.90;5.60;;;;;;;;;;5037102;28;20395;-62
2021/01/06 17:17:22;;;;;;;9.63;7.07;;;;;;;;;;5044991;28;20033;-61
2021/01/06 17:19:51;;;;;;;17.35;10.05;;;;;;;;;;5047482;28;20040;-61
2021/01/06 17:22:36;;;;;;;13.43;9.32;;;;;;;;;;5047210;28;20506;-61
2021/01/06 17:25:04;;;;;;;9.43;6.10;;;;;;;;;;5047518;28;20044;-61
2021/01/06 17:27:32;;;;;;;8.80;5.10;;;;;;;;;;5044491;28;20028;-62
2021/01/06 17:30:17;;;;;;;6.70;4.53;;;;;;;;;;5044647;28;20036;-61
2021/01/06 17:32:44;;;;;;;8.35;6.47;;;;;;;;;;5045304;28;20477;-59
2021/01/06 17:35:23;;;;;;;5.30;4.15;;;;;;;;;;5045305;28;20121;-61
2021/01/06 17:37:54;;;;;;;7.65;4.85;;;;;;;;;;5047073;28;20041;-61
2021/01/06 17:40:23;;;;;;;8.35;4.60;;;;;;;;;;5047342;28;20110;-62
2021/01/06 17:42:52;;;;;;;20.75;13.95;;;;;;;;;;5044824;28;20036;-61
2021/01/06 17:45:18;;;;;;;13.35;9.05;;;;;;;;;;5044488;28;20025;-61
2021/01/06 17:47:44;;;;;;;7.70;5.70;;;;;;;;;;5045035;28;20538;-60
2021/01/06 17:50:11;;;;;;;7.38;4.85;;;;;;;;;;5044681;28;20553;-61
2021/01/06 17:52:41;;;;;;;8.02;6.35;;;;;;;;;;5048411;28;20096;-61
2021/01/06 17:55:08;;;;;;;17.90;12.98;;;;;;;;;;5046709;28;20017;-60
2021/01/06 17:57:34;;;;;;;17.48;12.57;;;;;;;;;;5045068;28;20037;-61
2021/01/06 18:00:01;;;;;;;16.25;13.88;;;;;;;;;;5045173;28;20037;-61
2021/01/06 18:02:32;;;;;;;10.50;6.82;;;;;;;;;;5045367;28;20375;-61
2021/01/06 18:05:04;;;;;;;16.27;9.82;;;;;;;;;;5044841;28;20456;-61
2021/01/06 18:07:31;;;;;;;19.80;11.82;;;;;;;;;;5048572;28;20033;-61
2021/01/06 18:09:57;;;;;;;12.35;9.13;;;;;;;;;;5045179;28;20107;-61
2021/01/06 18:12:27;;;;;;;13.48;10.73;;;;;;;;;;5044768;28;20033;-61
2021/01/06 18:14:53;;;;;;;18.30;9.82;;;;;;;;;;5044229;28;20040;-61
2021/01/06 18:17:24;;;;;;;32.17;18.70;;;;;;;;;;5045061;28;20446;-61
2021/01/06 18:19:50;;;;;;;19.48;10.32;;;;;;;;;;5046566;28;20041;-60
2021/01/06 18:22:17;;;;;;;26.92;12.57;;;;;;;;;;5045105;28;20056;-60
2021/01/06 18:24:43;;;;;;;29.55;15.18;;;;;;;;;;5045223;28;20021;-60
2021/01/06 18:27:10;;;;;;;24.50;13.10;;;;;;;;;;5044538;28;20040;-61
2021/01/06 18:29:37;;;;;;;22.70;12.63;;;;;;;;;;5044461;28;20116;-61
2021/01/06 18:32:20;;;;;;;25.38;13.82;;;;;;;;;;5028083;28;20707;-61
2021/01/06 18:34:48;;;;;;;37.10;20.05;;;;;;;;;;5045328;28;20518;-61
2021/01/06 18:37:15;;;;;;;30.77;20.42;;;;;;;;;;5032857;28;20087;-60
2021/01/06 18:39:42;;;;;;;39.40;20.13;;;;;;;;;;5033692;28;20033;-61
2021/01/06 18:42:21;;;;;;;33.45;21.17;;;;;;;;;;5033117;28;20036;-61
2021/01/06 18:44:47;;;;;;;39.60;24.63;;;;;;;;;;5037076;28;20112;-61
2021/01/06 18:47:13;;;;;;;40.13;23.90;;;;;;;;;;5048135;28;20456;-61
2021/01/06 18:49:39;;;;;;;47.40;25.40;;;;;;;;;;5047987;28;20033;-62
2021/01/06 18:52:12;;;;;;;37.40;23.25;;;;;;;;;;5048179;28;20049;-61
2021/01/06 18:54:39;;;;;;;42.63;24.23;;;;;;;;;;5047016;28;20557;-60
2021/01/06 18:57:15;;;;;;;39.03;23.30;;;;;;;;;;5046931;28;20087;-61
2021/01/06 18:59:43;;;;;;;38.45;22.48;;;;;;;;;;5051529;28;20404;-60
2021/01/06 19:02:26;;;;;;;32.20;21.38;;;;;;;;;;5052155;28;20045;-61
2021/01/06 19:04:59;;;;;;;45.17;27.92;;;;;;;;;;5036268;28;20021;-60
2021/01/06 19:07:25;;;;;;;58.25;33.47;;;;;;;;;;5034111;28;20037;-61
2021/01/06 19:09:51;;;;;;;65.25;43.65;;;;;;;;;;5044088;28;20506;-61
2021/01/06 19:12:17;;;;;;;70.95;44.60;;;;;;;;;;5040181;28;20025;-61
2021/01/06 19:14:43;;;;;;;70.88;45.72;;;;;;;;;;5043036;28;20029;-61
2021/01/06 19:17:20;;;;;;;76.75;49.55;;;;;;;;;;5049724;28;20017;-61
2021/01/06 19:19:59;;;;;;;83.40;53.08;;;;;;;;;;5051210;28;20028;-62
2021/01/06 19:22:26;;;;;;;86.63;53.78;;;;;;;;;;5042511;28;20571;-62
2021/01/06 19:24:53;;;;;;;85.25;54.30;;;;;;;;;;5048225;28;20710;-62
2021/01/06 19:27:19;;;;;;;72.55;48.90;;;;;;;;;;5046988;28;20025;-62
2021/01/06 19:29:57;;;;;;;77.28;50.30;;;;;;;;;;5048696;28;20056;-62
2021/01/06 19:32:23;;;;;;;97.72;56.30;;;;;;;;;;5036351;28;20033;-62
2021/01/06 19:34:51;;;;;;;83.25;52.33;;;;;;;;;;5051778;28;20032;-62
2021/01/06 19:37:18;;;;;;;84.53;52.55;;;;;;;;;;5053979;28;20037;-62
2021/01/06 19:39:44;;;;;;;89.10;54.80;;;;;;;;;;5046414;28;20108;-62
2021/01/06 19:42:11;;;;;;;108.18;57.53;;;;;;;;;;5041098;28;20034;-62
2021/01/06 19:44:37;;;;;;;84.85;54.20;;;;;;;;;;5037603;28;20021;-63
2021/01/06 19:47:03;;;;;;;101.60;61.70;;;;;;;;;;5041134;28;20410;-63
2021/01/06 19:49:29;;;;;;;102.80;61.70;;;;;;;;;;5052935;28;20655;-62
2021/01/06 19:51:56;;;;;;;101.80;59.10;;;;;;;;;;5050707;28;20110;-63
2021/01/06 19:54:23;;;;;;;98.70;59.80;;;;;;;;;;5049357;28;20029;-62
2021/01/06 19:56:50;;;;;;;94.50;56.50;;;;;;;;;;5048932;28;20035;-63
2021/01/06 19:59:17;;;;;;;124.65;55.67;;;;;;;;;;5050227;28;20524;-62
2021/01/06 20:01:43;;;;;;;113.97;60.05;;;;;;;;;;5044432;28;20072;-63
2021/01/06 20:04:09;;;;;;;89.05;54.65;;;;;;;;;;5050326;28;20029;-61
2021/01/06 20:06:36;;;;;;;103.95;56.97;;;;;;;;;;5050269;28;20061;-61
2021/01/06 20:09:05;;;;;;;133.32;60.08;;;;;;;;;;5040604;28;20025;-62
2021/01/06 20:11:32;;;;;;;99.07;55.88;;;;;;;;;;5044856;28;20033;-62
2021/01/06 20:13:59;;;;;;;114.65;62.28;;;;;;;;;;5044640;28;20049;-62
2021/01/06 20:16:26;;;;;;;130.60;63.88;;;;;;;;;;5049214;28;20055;-63
2021/01/06 20:18:53;;;;;;;118.72;63.00;;;;;;;;;;5042425;28;20104;-63
2021/01/06 20:21:19;;;;;;;157.32;71.82;;;;;;;;;;5041353;28;20029;-62
2021/01/06 20:23:45;;;;;;;133.32;79.22;;;;;;;;;;5041105;28;20387;-63
2021/01/06 20:26:13;;;;;;;118.03;64.60;;;;;;;;;;5045394;28;20024;-62
2021/01/06 20:28:39;;;;;;;150.20;79.22;;;;;;;;;;5043541;28;20033;-63
2021/01/06 20:31:07;;;;;;;135.93;75.35;;;;;;;;;;5042793;28;20021;-63
2021/01/06 20:33:34;;;;;;;144.07;73.05;;;;;;;;;;5041472;28;20033;-63
2021/01/06 20:36:01;;;;;;;157.52;73.90;;;;;;;;;;5041527;28;20084;-62
2021/01/06 20:38:27;;;;;;;195.32;74.05;;;;;;;;;;5046232;28;20041;-62
2021/01/06 20:40:53;;;;;;;131.02;73.85;;;;;;;;;;5043891;28;20112;-63
2021/01/06 20:43:19;;;;;;;174.32;79.60;;;;;;;;;;5043713;28;20530;-62
2021/01/06 20:45:47;;;;;;;141.20;75.53;;;;;;;;;;5041681;28;20020;-62
2021/01/06 20:48:14;;;;;;;169.75;88.00;;;;;;;;;;5041203;28;20029;-62
2021/01/06 20:50:40;;;;;;;306.05;101.28;;;;;;;;;;5047695;28;20156;-62
2021/01/06 20:53:06;;;;;;;344.13;97.20;;;;;;;;;;5047452;28;20105;-62